Time;durP1;ratioP1;P1;durP2;ratioP2;P2;SDS_P1;SDS_P2;PMS_P1;PMS_P2;Temp;Humidity;BMP_temperature;BMP_pressure;BME280_temperature;BME280_humidity;BME280_pressure;Samples;Min_cycle;Max_cycle;Signal;HPM_P1;HPM_P2
2021/05/17 00:00:48;;;;;;;6.87;2.77;;;;;;;10.81;92.17;96906.16;1699512;82;21026;-79
2021/05/17 00:03:17;;;;;;;6.15;2.42;;;;;;;10.88;92.10;96906.23;1730990;83;21072;-78
2021/05/17 00:05:45;;;;;;;4.60;2.25;;;;;;;10.93;91.74;96915.31;1717979;83;21033;-79
2021/05/17 00:08:12;;;;;;;4.67;2.30;;;;;;;10.91;91.04;96919.36;1699895;84;21106;-80
2021/05/17 00:10:39;;;;;;;4.92;2.80;;;;;;;10.85;90.81;96930.71;1699525;84;21092;-79
2021/05/17 00:13:08;;;;;;;6.85;2.42;;;;;;;10.72;90.90;96926.47;1700590;83;21102;-79
2021/05/17 00:15:35;;;;;;;6.33;2.90;;;;;;;10.67;91.02;96935.48;1701105;84;21101;-79
2021/05/17 00:18:02;;;;;;;6.45;2.50;;;;;;;;;;1711651;83;21084;-78
2021/05/17 00:20:29;;;;;;;5.85;2.77;;;;;;;10.54;91.59;96931.69;1725485;82;21621;-79
2021/05/17 00:22:56;;;;;;;7.53;2.90;;;;;;;10.53;90.91;96930.84;1692149;83;21558;-80
2021/05/17 00:25:24;;;;;;;4.10;2.80;;;;;;;10.51;91.37;96930.05;1685776;84;21082;-79
2021/05/17 00:27:55;;;;;;;4.47;2.67;;;;;;;10.49;91.58;96929.72;1673274;85;21012;-79
2021/05/17 00:30:27;;;;;;;7.30;2.70;;;;;;;10.48;91.59;96926.69;1690785;83;21022;-79
2021/05/17 00:32:55;;;;;;;3.27;2.35;;;;;;;10.47;91.13;96929.81;1704005;83;21129;-80
2021/05/17 00:35:23;;;;;;;4.42;3.12;;;;;;;10.43;91.48;96935.70;1734556;83;21207;-80
2021/05/17 00:37:50;;;;;;;4.78;2.55;;;;;;;10.40;92.23;96934.50;1725979;83;21057;-80
2021/05/17 00:40:19;;;;;;;8.20;2.87;;;;;;;10.36;92.89;96935.57;1711628;82;21528;-80
2021/05/17 00:42:47;;;;;;;5.95;3.08;;;;;;;10.34;92.33;96922.84;1661520;85;21587;-80
2021/05/17 00:45:18;;;;;;;4.22;3.17;;;;;;;10.31;93.46;96933.59;1668809;85;21063;-80
2021/05/17 00:47:50;;;;;;;4.60;2.90;;;;;;;10.31;92.80;96925.66;1659483;85;21043;-79
2021/05/17 00:50:22;;;;;;;3.42;3.00;;;;;;;10.33;91.84;96933.05;1658145;85;21071;-79
2021/05/17 00:52:49;;;;;;;4.28;2.77;;;;;;;10.32;91.41;96939.28;1668388;85;21091;-79
2021/05/17 00:55:17;;;;;;;4.33;2.67;;;;;;;10.34;91.47;96936.09;1662348;85;21046;-79
2021/05/17 00:57:45;;;;;;;4.65;2.60;;;;;;;10.36;91.69;96927.63;1688578;84;21491;-79
2021/05/17 01:00:16;;;;;;;4.25;2.95;;;;;;;10.38;91.28;96922.27;1694029;82;21065;-79
2021/05/17 01:02:44;;;;;;;4.87;2.90;;;;;;;10.37;91.39;96925.36;1726308;81;21010;-80
2021/05/17 01:05:15;;;;;;;5.30;2.70;;;;;;;10.37;91.85;96922.72;1727277;82;21046;-79
2021/05/17 01:07:47;;;;;;;6.97;2.70;;;;;;;10.35;91.74;96929.89;1709760;83;21097;-79
2021/05/17 01:10:16;;;;;;;6.10;2.98;;;;;;;10.36;91.38;96928.08;1697737;84;21579;-79
2021/05/17 01:12:46;;;;;;;5.92;3.17;;;;;;;10.34;92.39;96928.14;1701185;84;21089;-79
2021/05/17 01:15:17;;;;;;;4.75;2.77;;;;;;;10.30;92.21;96931.41;1701096;84;21073;-80
2021/05/17 01:17:45;;;;;;;6.30;2.70;;;;;;;10.28;91.28;96930.63;1702258;83;21083;-79
2021/05/17 01:20:18;;;;;;;5.85;2.62;;;;;;;10.27;92.28;96928.91;1686667;84;21500;-79
2021/05/17 01:22:52;;;;;;;3.10;2.10;;;;;;;10.26;92.07;96926.33;1672400;83;21543;-79
2021/05/17 01:25:24;;;;;;;5.03;2.30;;;;;;;10.24;92.24;96925.52;1681300;85;21073;-79
2021/05/17 01:27:52;;;;;;;2.67;2.20;;;;;;;10.26;92.38;96925.01;1681135;85;21050;-79
2021/05/17 01:30:22;;;;;;;4.85;2.15;;;;;;;10.29;92.26;96923.52;1655259;86;21115;-79
2021/05/17 01:32:54;;;;;;;3.35;2.05;;;;;;;10.34;92.03;96925.98;1683532;85;21067;-80
2021/05/17 01:35:22;;;;;;;9.75;2.17;;;;;;;10.40;92.05;96931.86;1693385;85;21026;-80
2021/05/17 01:37:51;;;;;;;4.37;2.12;;;;;;;10.45;92.12;96932.11;1672234;85;21150;-80
2021/05/17 01:40:19;;;;;;;5.37;1.90;;;;;;;10.48;91.81;96935.95;1707193;83;21030;-80
2021/05/17 01:42:51;;;;;;;7.30;1.90;;;;;;;10.48;91.93;96936.83;1674106;85;21024;-80
2021/05/17 01:45:18;;;;;;;3.37;2.00;;;;;;;10.53;91.89;96936.15;1674214;85;21023;-79
2021/05/17 01:47:45;;;;;;;6.72;1.70;;;;;;;10.57;91.81;96930.23;1645255;85;21113;-80
2021/05/17 01:50:18;;;;;;;3.62;1.65;;;;;;;10.55;91.59;96934.27;1683351;84;21063;-80
2021/05/17 01:52:44;;;;;;;2.70;1.80;;;;;;;10.53;91.37;96929.98;1650802;86;21511;-79
2021/05/17 01:55:14;;;;;;;6.47;1.90;;;;;;;10.48;91.26;96925.36;1656685;86;21621;-79
2021/05/17 01:57:41;;;;;;;2.75;2.10;;;;;;;10.43;91.45;96929.08;1631555;85;22264;-79
2021/05/17 02:00:17;;;;;;;2.27;1.75;;;;;;;10.41;91.04;96930.92;1630876;87;21082;-80
2021/05/17 02:02:45;;;;;;;3.40;1.90;;;;;;;10.36;90.85;96931.59;1630820;88;21138;-80
2021/05/17 02:05:14;;;;;;;5.80;2.25;;;;;;;10.32;90.88;96934.44;1629935;87;21090;-78
2021/05/17 02:07:42;;;;;;;2.33;2.12;;;;;;;10.23;91.13;96929.98;1631352;85;21070;-79
2021/05/17 02:10:10;;;;;;;5.95;2.00;;;;;;;10.15;91.41;96929.00;1684966;85;21011;-79
2021/05/17 02:12:41;;;;;;;4.83;2.02;;;;;;;10.07;90.93;96927.61;1685258;85;21042;-79
2021/05/17 02:15:11;;;;;;;5.78;3.17;;;;;;;10.00;91.83;96925.24;1684994;84;21074;-79
2021/05/17 02:17:39;;;;;;;3.60;1.98;;;;;;;9.87;92.24;96928.03;1641397;86;21050;-79
2021/05/17 02:20:09;;;;;;;8.58;2.22;;;;;;;9.80;91.51;96927.44;1670789;85;21050;-79
2021/05/17 02:22:39;;;;;;;3.05;2.17;;;;;;;9.72;92.14;96933.55;1639449;85;21086;-79
2021/05/17 02:25:10;;;;;;;3.98;2.55;;;;;;;9.64;92.15;96930.75;1654847;86;21177;-79
2021/05/17 02:27:45;;;;;;;4.92;2.15;;;;;;;9.60;91.74;96932.28;1630867;88;21089;-79
2021/05/17 02:30:15;;;;;;;4.65;2.15;;;;;;;9.54;91.39;96932.07;1662832;85;21079;-79
2021/05/17 02:32:42;;;;;;;4.25;2.30;;;;;;;9.45;91.05;96925.40;1657195;86;21070;-78
2021/05/17 02:35:12;;;;;;;3.30;2.17;;;;;;;9.40;90.96;96921.22;1657247;86;21508;-79
2021/05/17 02:37:39;;;;;;;5.90;2.33;;;;;;;9.31;90.93;96920.70;1648064;86;21055;-79
2021/05/17 02:40:09;;;;;;;5.05;2.42;;;;;;;9.24;90.94;96924.06;1666889;84;21079;-79
2021/05/17 02:42:48;;;;;;;2.72;2.10;;;;;;;9.17;91.12;96930.51;1702140;84;21614;-79
2021/05/17 02:45:19;;;;;;;10.63;2.25;;;;;;;9.10;91.38;96935.66;1702618;84;21514;-79
2021/05/17 02:47:46;;;;;;;6.90;1.90;;;;;;;9.04;91.43;96930.16;1698115;84;21116;-79
2021/05/17 02:50:16;;;;;;;3.72;2.08;;;;;;;8.98;91.15;96934.38;1686270;84;21037;-79
2021/05/17 02:52:46;;;;;;;5.75;2.42;;;;;;;8.93;91.16;96930.58;1706195;84;21017;-79
2021/05/17 02:55:16;;;;;;;4.53;2.35;;;;;;;8.87;91.50;96932.16;1706302;84;21061;-80
2021/05/17 02:57:50;;;;;;;3.80;2.27;;;;;;;8.79;92.95;96928.50;1706014;84;21029;-79
2021/05/17 03:00:22;;;;;;;4.92;2.60;;;;;;;8.71;95.17;96927.48;1680907;85;21033;-79
2021/05/17 03:03:03;;;;;;;4.67;1.98;;;;;;;8.69;95.11;96920.06;1706240;84;21507;-79
2021/05/17 03:05:40;;;;;;;8.80;2.45;;;;;;;8.71;93.32;96921.33;1705828;84;21579;-79
2021/05/17 03:08:14;;;;;;;5.87;1.92;;;;;;;8.71;92.91;96918.69;1678409;85;21496;-80
2021/05/17 03:10:44;;;;;;;6.30;2.15;;;;;;;8.72;92.80;96913.80;1681816;85;21473;-79
2021/05/17 03:13:15;;;;;;;3.52;2.55;;;;;;;8.73;92.88;96912.89;1710667;84;21072;-80
2021/05/17 03:15:43;;;;;;;6.62;2.25;;;;;;;8.77;93.15;96917.14;1697842;84;21182;-79
2021/05/17 03:18:10;;;;;;;5.25;3.08;;;;;;;8.82;93.77;96908.57;1677734;85;21045;-79
2021/05/17 03:20:38;;;;;;;7.12;2.65;;;;;;;8.85;93.28;96909.75;1678513;85;21570;-79
2021/05/17 03:23:14;;;;;;;6.15;2.10;;;;;;;8.87;93.39;96907.50;1679262;85;21053;-80
2021/05/17 03:25:47;;;;;;;6.03;2.10;;;;;;;8.85;93.38;96908.43;1679176;84;21037;-79
2021/05/17 03:28:15;;;;;;;3.33;1.80;;;;;;;8.87;93.16;96908.38;1677349;85;21113;-79
2021/05/17 03:30:41;;;;;;;14.25;2.75;;;;;;;8.86;92.91;96905.34;1677473;85;21049;-79
2021/05/17 03:33:08;;;;;;;6.22;2.42;;;;;;;8.88;92.67;96900.84;1677267;85;21081;-80
2021/05/17 03:35:35;;;;;;;5.45;2.30;;;;;;;8.90;92.67;96903.42;1698668;84;21084;-79
2021/05/17 03:38:01;;;;;;;11.73;2.30;;;;;;;8.92;92.67;96898.92;1685982;84;21040;-79
2021/05/17 03:40:28;;;;;;;6.05;2.20;;;;;;;8.85;92.13;96899.66;1682735;84;21033;-78
2021/05/17 03:42:54;;;;;;;4.55;2.10;;;;;;;8.85;92.15;96895.70;1715595;82;21106;-79
2021/05/17 03:45:20;;;;;;;7.60;3.00;;;;;;;8.83;91.82;96898.39;1740941;81;21482;-79
2021/05/17 03:47:47;;;;;;;5.47;2.52;;;;;;;8.79;91.50;96902.08;1757207;81;21507;-79
2021/05/17 03:50:14;;;;;;;5.25;2.87;;;;;;;8.77;91.53;96902.61;1743975;82;21173;-79
2021/05/17 03:52:41;;;;;;;6.70;2.90;;;;;;;8.76;91.31;96912.75;1738526;82;21130;-79
2021/05/17 03:55:10;;;;;;;4.92;2.90;;;;;;;8.69;91.54;96908.66;1714478;84;21018;-79
2021/05/17 03:57:37;;;;;;;9.98;3.35;;;;;;;8.67;91.33;96902.55;1723037;82;21090;-79
2021/05/17 04:00:10;;;;;;;9.00;2.65;;;;;;;8.67;91.38;96901.23;1744182;82;21023;-78
2021/05/17 04:02:44;;;;;;;7.05;4.03;;;;;;;8.67;91.50;96912.67;1738016;82;20992;-79
2021/05/17 04:05:31;;;;;;;11.30;4.00;;;;;;;8.61;91.73;96902.80;1744155;82;20983;-79
2021/05/17 04:13:27;;;;;;;6.10;2.52;;;;;;;8.55;91.66;96898.61;1714584;84;21480;-80
2021/05/17 04:15:55;;;;;;;9.53;2.30;;;;;;;8.57;91.11;96905.58;1714584;83;21074;-80
2021/05/17 04:18:23;;;;;;;6.75;3.02;;;;;;;8.54;91.17;96904.38;1731920;82;21010;-80
2021/05/17 04:20:52;;;;;;;7.37;2.47;;;;;;;8.56;90.77;96904.31;1744041;82;21059;-80
2021/05/17 04:23:24;;;;;;;2.98;2.22;;;;;;;8.58;90.87;96905.10;1744384;82;21030;-80
2021/05/17 04:25:52;;;;;;;2.72;2.17;;;;;;;8.61;91.28;96905.44;1744971;82;21027;-80
2021/05/17 04:28:19;;;;;;;8.68;2.45;;;;;;;8.63;90.82;96900.98;1723131;82;21031;-80
2021/05/17 04:30:46;;;;;;;10.15;2.40;;;;;;;8.66;90.67;96895.55;1744242;82;21055;-80
2021/05/17 04:33:13;;;;;;;4.47;2.35;;;;;;;8.68;90.85;96891.93;1744854;82;21046;-80
2021/05/17 04:35:39;;;;;;;4.50;2.50;;;;;;;8.73;90.70;96892.22;1745060;82;21043;-80
2021/05/17 04:38:06;;;;;;;3.62;2.58;;;;;;;8.77;90.68;96888.53;1731292;82;21532;-80
2021/05/17 04:40:33;;;;;;;3.90;2.33;;;;;;;8.82;90.61;96886.11;1715279;84;21059;-80
2021/05/17 04:43:00;;;;;;;7.70;2.30;;;;;;;8.88;90.64;96894.23;1695272;84;21074;-80
2021/05/17 04:45:26;;;;;;;5.92;2.60;;;;;;;8.93;90.56;96894.91;1690381;85;21053;-80
2021/05/17 04:47:54;;;;;;;4.22;2.45;;;;;;;8.97;90.90;96891.22;1690856;83;21016;-80
2021/05/17 04:50:23;;;;;;;4.58;2.42;;;;;;;9.02;90.84;96892.37;1690403;83;21104;-80
2021/05/17 04:52:50;;;;;;;2.62;2.22;;;;;;;9.10;90.70;96885.44;1686679;84;21034;-80
2021/05/17 04:55:17;;;;;;;3.33;2.10;;;;;;;9.19;90.83;96889.02;1690248;84;21093;-80
2021/05/17 04:57:43;;;;;;;4.33;2.40;;;;;;;9.29;90.62;96888.16;1685648;84;21486;-80
2021/05/17 05:00:12;;;;;;;3.98;2.47;;;;;;;9.41;90.64;96889.42;1706159;83;21033;-79
2021/05/17 05:02:40;;;;;;;4.87;1.67;;;;;;;9.52;90.28;96885.00;1718315;83;21029;-80
2021/05/17 05:05:09;;;;;;;2.00;1.80;;;;;;;9.64;89.58;96882.30;1719232;83;21016;-80
2021/05/17 05:07:35;;;;;;;2.17;1.47;;;;;;;9.76;89.34;96875.61;1713198;83;21045;-79
2021/05/17 05:10:04;;;;;;;3.92;1.50;;;;;;;9.90;89.40;96873.66;1690619;85;21048;-79
2021/05/17 05:12:31;;;;;;;1.32;1.10;;;;;;;10.04;88.87;96874.34;1690474;85;21389;-80
2021/05/17 05:14:58;;;;;;;3.12;1.30;;;;;;;10.17;87.84;96869.34;1690567;85;21037;-80
2021/05/17 05:17:24;;;;;;;3.10;1.20;;;;;;;10.26;85.41;96862.78;1726436;82;21585;-80
2021/05/17 05:19:50;;;;;;;2.55;1.27;;;;;;;10.34;84.36;96860.61;1711895;83;21128;-80
2021/05/17 05:22:17;;;;;;;3.15;1.25;;;;;;;10.43;85.78;96856.23;1708117;84;21629;-80
2021/05/17 05:24:43;;;;;;;3.67;1.67;;;;;;;10.52;86.22;96856.73;1707637;84;21029;-80
2021/05/17 05:27:22;;;;;;;6.40;1.60;;;;;;;10.60;85.02;96854.59;1707261;83;21037;-80
2021/05/17 05:30:06;;;;;;;2.98;1.47;;;;;;;10.72;84.04;96856.24;1719488;83;21486;-80
2021/05/17 05:32:30;;;;;;;1.42;1.30;;;;;;;10.80;82.88;96841.67;1718634;82;21032;-80
2021/05/17 05:34:53;;;;;;;1.45;1.20;;;;;;;10.87;83.99;96835.61;1719924;83;21104;-81
2021/05/17 05:37:20;;;;;;;2.35;1.20;;;;;;;10.95;83.42;96840.08;1697203;83;21546;-81
2021/05/17 05:39:46;;;;;;;2.12;1.70;;;;;;;11.03;83.49;96826.89;1690250;85;21108;-82
2021/05/17 05:42:13;;;;;;;2.42;1.12;;;;;;;11.12;83.58;96833.05;1706568;82;21509;-81
2021/05/17 05:44:44;;;;;;;6.65;1.37;;;;;;;11.18;83.81;96823.45;1718927;83;21513;-80
2021/05/17 05:47:11;;;;;;;5.45;1.65;;;;;;;11.28;83.82;96819.88;1708362;83;21027;-81
2021/05/17 05:49:38;;;;;;;5.00;1.20;;;;;;;11.31;83.72;96814.42;1705411;83;21052;-81
2021/05/17 05:52:05;;;;;;;1.80;1.20;;;;;;;11.38;83.57;96803.00;1710931;82;21052;-82
2021/05/17 05:54:31;;;;;;;2.37;1.27;;;;;;;11.43;82.91;96793.04;1663839;85;21553;-82
2021/05/17 05:56:58;;;;;;;1.95;1.27;;;;;;;11.47;83.17;96799.03;1683176;84;20989;-82
2021/05/17 05:59:25;;;;;;;3.05;2.75;;;;;;;11.51;83.42;96797.94;1682366;85;21069;-83
2021/05/17 06:01:51;;;;;;;2.77;1.40;;;;;;;11.56;83.03;96795.03;1686957;84;21454;-82
2021/05/17 06:04:18;;;;;;;2.65;1.10;;;;;;;11.64;82.63;96794.62;1705506;82;21047;-82
2021/05/17 06:06:44;;;;;;;2.50;1.30;;;;;;;11.72;82.21;96797.24;1680105;85;21040;-83
2021/05/17 06:09:11;;;;;;;2.42;1.40;;;;;;;11.82;82.53;96795.42;1670176;85;21083;-83
2021/05/17 06:11:38;;;;;;;2.58;1.10;;;;;;;11.88;80.86;96793.78;1717562;83;20992;-82
2021/05/17 06:14:07;;;;;;;3.55;1.37;;;;;;;11.97;81.60;96785.78;1691912;83;21025;-82
2021/05/17 06:16:34;;;;;;;3.77;1.60;;;;;;;12.03;82.00;96776.63;1667085;85;21046;-81
2021/05/17 06:19:02;;;;;;;2.92;1.40;;;;;;;12.08;81.89;96773.28;1692704;83;21033;-81
2021/05/17 06:21:30;;;;;;;2.30;1.50;;;;;;;12.16;79.67;96779.48;1670455;84;21071;-81
2021/05/17 06:23:57;;;;;;;2.72;1.17;;;;;;;12.27;80.11;96774.42;1712815;82;21356;-81
2021/05/17 06:26:26;;;;;;;2.67;1.30;;;;;;;12.39;77.15;96768.44;1694276;83;21059;-82
2021/05/17 06:28:54;;;;;;;1.22;1.00;;;;;;;12.54;79.21;96769.34;1691590;83;21086;-81
2021/05/17 06:31:22;;;;;;;30.27;20.20;;;;;;;12.64;78.85;96777.66;1715559;82;21111;-82
2021/05/17 06:33:50;;;;;;;22.37;13.53;;;;;;;12.73;79.52;96774.06;1701473;80;21114;-81
2021/05/17 06:36:17;;;;;;;7.67;5.00;;;;;;;12.79;79.64;96773.73;1703741;82;21517;-81
2021/05/17 06:38:44;;;;;;;4.70;1.82;;;;;;;12.87;79.56;96771.95;1708932;83;21038;-82
2021/05/17 06:41:12;;;;;;;2.75;1.10;;;;;;;12.94;79.46;96764.84;1712679;82;21036;-81
2021/05/17 06:43:40;;;;;;;1.20;1.00;;;;;;;13.02;77.54;96760.86;1708049;82;21426;-82
2021/05/17 06:46:09;;;;;;;1.70;0.80;;;;;;;13.09;77.65;96754.70;1729141;82;21039;-81
2021/05/17 06:48:42;;;;;;;2.15;1.02;;;;;;;13.18;75.54;96756.81;1731525;82;21043;-82
2021/05/17 06:51:17;;;;;;;2.25;0.90;;;;;;;13.27;75.57;96752.73;1737484;82;21647;-81
2021/05/17 06:53:45;;;;;;;1.57;0.90;;;;;;;13.34;76.08;96752.27;1738254;82;21031;-80
2021/05/17 06:56:21;;;;;;;2.42;1.00;;;;;;;13.44;75.77;96755.70;1726369;82;21009;-81
2021/05/17 07:01:23;;;;;;;2.35;1.05;;;;;;;13.61;69.28;96757.84;1729962;82;21120;-83
2021/05/17 07:03:50;;;;;;;1.45;1.15;;;;;;;13.71;72.44;96758.48;1699215;83;21530;-83
2021/05/17 07:06:25;;;;;;;2.80;1.35;;;;;;;13.83;72.94;96758.70;1705150;83;21038;-85
2021/05/17 07:14:15;;;;;;;1.98;1.37;;;;;;;14.17;73.07;96753.89;1685874;83;21054;-82
2021/05/17 07:16:43;;;;;;;3.33;1.60;;;;;;;14.26;72.44;96757.77;1690518;83;21512;-82
2021/05/17 07:19:10;;;;;;;3.75;1.37;;;;;;;14.32;72.01;96752.52;1698636;83;21427;-82
2021/05/17 07:24:23;;;;;;;2.80;1.50;;;;;;;14.54;72.23;96751.97;1704707;83;21130;-82
2021/05/17 07:26:50;;;;;;;5.47;2.05;;;;;;;14.68;72.44;96748.84;1691732;84;21506;-82
2021/05/17 07:29:19;;;;;;;5.42;2.65;;;;;;;14.82;72.48;96742.64;1688844;85;21171;-82
2021/05/17 07:31:47;;;;;;;7.05;2.00;;;;;;;14.96;71.28;96747.91;1695319;83;21008;-81
2021/05/17 07:34:14;;;;;;;2.15;1.80;;;;;;;15.09;71.72;96739.92;1744030;81;20980;-77
2021/05/17 07:36:42;;;;;;;3.35;1.77;;;;;;;15.28;71.19;96742.17;1741657;81;21011;-81
2021/05/17 07:39:09;;;;;;;3.05;1.52;;;;;;;15.51;70.69;96741.53;1720644;81;21087;-82
2021/05/17 07:41:35;;;;;;;3.27;1.40;;;;;;;15.75;70.95;96740.77;1762370;81;20988;-83
2021/05/17 07:44:03;;;;;;;1.52;1.37;;;;;;;15.94;70.31;96742.53;1744236;80;21488;-82
2021/05/17 07:46:30;;;;;;;3.20;1.57;;;;;;;16.05;67.05;96736.42;1742113;80;21124;-78
2021/05/17 07:51:44;;;;;;;2.47;1.22;;;;;;;16.18;67.96;96719.01;1684422;85;21048;-76
2021/05/17 07:54:15;;;;;;;3.12;1.40;;;;;;;16.22;67.08;96714.28;1686210;85;21048;-78
2021/05/17 07:56:42;;;;;;;3.70;1.52;;;;;;;16.21;65.75;96709.44;1698415;83;21091;-78
2021/05/17 07:59:09;;;;;;;3.17;1.10;;;;;;;16.25;66.56;96711.39;1701684;83;21055;-78
2021/05/17 08:01:36;;;;;;;4.78;1.72;;;;;;;16.31;65.21;96712.74;1702634;83;21109;-80
2021/05/17 08:04:04;;;;;;;3.60;2.25;;;;;;;16.38;66.23;96715.34;1705546;83;21030;-79
2021/05/17 08:06:30;;;;;;;1.57;0.90;;;;;;;16.45;65.55;96713.91;1718453;83;21492;-78
2021/05/17 08:08:57;;;;;;;2.45;0.70;;;;;;;16.53;64.57;96709.33;1712626;83;21034;-79
2021/05/17 08:11:23;;;;;;;9.55;2.17;;;;;;;16.61;61.94;96710.13;1708150;83;21038;-79
2021/05/17 08:13:50;;;;;;;0.70;0.65;;;;;;;16.72;62.97;96702.60;1702805;83;21582;-81
2021/05/17 08:16:17;;;;;;;1.50;0.78;;;;;;;16.80;61.55;96690.84;1717566;83;21098;-83
2021/05/17 08:18:44;;;;;;;6.87;4.22;;;;;;;16.81;61.76;96690.38;1718360;83;21034;-79
2021/05/17 08:21:11;;;;;;;7.92;5.72;;;;;;;16.76;60.88;96690.70;1709426;83;21653;-80
2021/05/17 08:23:38;;;;;;;2.00;1.25;;;;;;;16.74;60.12;96696.17;1698720;83;20995;-83
2021/05/17 08:26:09;;;;;;;1.27;0.95;;;;;;;16.84;60.27;96701.69;1703996;82;21003;-79
2021/05/17 08:28:40;;;;;;;4.40;1.22;;;;;;;16.89;60.93;96690.14;1702802;83;21081;-82
2021/05/17 08:31:09;;;;;;;2.12;1.00;;;;;;;16.94;61.12;96690.28;1702749;83;21060;-80
2021/05/17 08:33:36;;;;;;;2.62;1.10;;;;;;;17.00;61.25;96696.02;1705922;83;21086;-79
2021/05/17 08:36:04;;;;;;;1.37;1.00;;;;;;;17.12;62.01;96688.04;1700567;83;21075;-81
2021/05/17 08:38:32;;;;;;;1.07;0.80;;;;;;;17.22;62.05;96686.82;1703694;83;21046;-80
2021/05/17 08:40:59;;;;;;;1.62;0.80;;;;;;;17.28;60.59;96691.22;1710295;83;21051;-79
2021/05/17 08:43:27;;;;;;;0.95;0.70;;;;;;;17.34;60.05;96684.54;1699978;83;21539;-80
2021/05/17 08:45:55;;;;;;;2.90;1.05;;;;;;;17.42;59.35;96674.56;1702017;84;21063;-79
2021/05/17 08:48:22;;;;;;;2.08;1.00;;;;;;;17.55;60.32;96667.27;1682677;84;21540;-82
2021/05/17 08:50:49;;;;;;;2.02;1.22;;;;;;;17.64;57.69;96668.34;1686802;84;21035;-80
2021/05/17 08:53:16;;;;;;;1.32;0.80;;;;;;;17.73;57.71;96657.38;1686685;84;21126;-80
2021/05/17 08:55:44;;;;;;;1.32;1.00;;;;;;;17.81;57.75;96661.64;1695045;84;21063;-82
2021/05/17 08:58:10;;;;;;;1.95;1.10;;;;;;;17.91;59.03;96655.06;1689252;84;21000;-82
2021/05/17 09:00:40;;;;;;;2.47;1.25;;;;;;;17.99;54.94;96651.75;1690093;84;21016;-82
2021/05/17 09:03:07;;;;;;;1.32;1.10;;;;;;;17.95;57.44;96656.48;1695943;84;21057;-85
2021/05/17 09:05:35;;;;;;;4.97;1.30;;;;;;;18.02;57.72;96646.12;1696866;84;21595;-78
2021/05/17 09:08:04;;;;;;;2.58;1.00;;;;;;;18.10;57.79;96653.56;1685899;84;21059;-83
2021/05/17 09:10:37;;;;;;;1.52;0.85;;;;;;;18.24;57.19;96644.40;1695688;84;21035;-82
2021/05/17 09:13:16;;;;;;;3.95;0.85;;;;;;;18.34;54.48;96645.81;1696135;84;21032;-81
2021/05/17 09:15:50;;;;;;;1.50;0.93;;;;;;;18.53;53.06;96649.17;1662465;85;21152;-80
2021/05/17 09:18:26;;;;;;;3.65;0.95;;;;;;;18.60;52.96;96638.27;1677104;85;21122;-80
2021/05/17 09:20:56;;;;;;;1.35;0.80;;;;;;;18.70;53.83;96633.47;1677010;85;21027;-81
2021/05/17 09:23:31;;;;;;;7.78;4.25;;;;;;;18.73;53.01;96635.39;1676425;85;21023;-86
2021/05/17 09:26:07;;;;;;;3.33;2.33;;;;;;;18.84;54.57;96630.94;1677698;84;21059;-82
2021/05/17 09:28:47;;;;;;;1.07;0.93;;;;;;;18.95;54.20;96613.44;1678491;84;21067;-84
2021/05/17 09:31:19;;;;;;;2.55;0.93;;;;;;;19.16;52.41;96621.98;1693001;84;21145;-83
2021/05/17 09:33:56;;;;;;;3.08;1.12;;;;;;;19.28;50.26;96624.10;1687854;84;22317;-82
2021/05/17 09:36:41;;;;;;;3.47;0.80;;;;;;;19.23;47.78;96617.77;1729053;81;21063;-82
2021/05/17 09:39:16;;;;;;;0.85;0.70;;;;;;;19.33;51.11;96620.52;1732155;81;21550;-81
2021/05/17 09:41:46;;;;;;;1.85;0.82;;;;;;;19.48;49.99;96624.19;1752061;81;21551;-83
2021/05/17 09:44:28;;;;;;;1.25;0.80;;;;;;;19.72;51.61;96610.91;1752272;80;21067;-83
2021/05/17 09:47:13;;;;;;;1.22;0.80;;;;;;;19.88;49.68;96614.38;1748053;80;21153;-82
2021/05/17 09:49:51;;;;;;;0.90;0.60;;;;;;;19.97;45.15;96611.38;1758256;80;21071;-81
2021/05/17 09:52:28;;;;;;;2.17;1.00;;;;;;;20.02;45.02;96610.50;1742699;80;21713;-81
2021/05/17 09:55:10;;;;;;;3.35;0.80;;;;;;;20.05;47.14;96616.92;1742275;82;21515;-82
2021/05/17 09:57:40;;;;;;;1.82;0.90;;;;;;;20.05;46.04;96609.72;1705393;83;21589;-82
2021/05/17 10:00:22;;;;;;;3.08;0.93;;;;;;;20.02;45.82;96605.95;1719213;82;21019;-83
2021/05/17 10:02:57;;;;;;;2.27;0.80;;;;;;;20.03;46.58;96614.88;1685635;84;21081;-85
2021/05/17 10:05:30;;;;;;;2.20;0.82;;;;;;;20.22;47.44;96607.83;1752708;80;21101;-82
2021/05/17 10:08:09;;;;;;;2.05;0.82;;;;;;;20.34;46.98;96599.13;1765313;80;21086;-82
2021/05/17 10:10:36;;;;;;;1.75;0.68;;;;;;;20.44;46.81;96598.12;1760774;80;21061;-80
2021/05/17 10:13:05;;;;;;;2.17;1.02;;;;;;;20.65;47.31;96585.51;1793518;80;21002;-82
2021/05/17 10:15:35;;;;;;;1.55;0.70;;;;;;;20.64;44.70;96591.89;1764969;80;21010;-82
2021/05/17 10:18:03;;;;;;;2.05;0.90;;;;;;;20.82;46.15;96588.82;1775205;80;20986;-80
2021/05/17 10:20:29;;;;;;;0.88;0.72;;;;;;;21.03;46.77;96586.94;1763912;80;21575;-83
2021/05/17 10:22:57;;;;;;;0.90;0.70;;;;;;;21.32;46.51;96580.13;1715828;83;21019;-78
2021/05/17 10:25:30;;;;;;;2.80;0.70;;;;;;;21.67;46.35;96573.63;1691381;83;21015;-78
2021/05/17 10:28:17;;;;;;;1.07;0.70;;;;;;;21.91;44.25;96568.71;1726809;83;21615;-81
2021/05/17 10:30:45;;;;;;;1.87;0.70;;;;;;;22.04;44.30;96568.33;1696481;83;21093;-80
2021/05/17 10:33:18;;;;;;;2.80;0.68;;;;;;;22.25;44.13;96564.81;1707421;82;21496;-83
2021/05/17 10:35:51;;;;;;;1.45;0.72;;;;;;;22.29;43.06;96553.20;1706554;82;21044;-82
2021/05/17 10:38:28;;;;;;;2.67;0.80;;;;;;;22.31;42.47;96562.02;1715675;82;21019;-82
2021/05/17 10:44:17;;;;;;;1.95;0.80;;;;;;;24.29;43.03;96542.91;1705531;83;21056;-83
2021/05/17 10:46:44;;;;;;;1.67;0.70;;;;;;;25.22;39.75;96533.69;1716485;83;21057;-86
2021/05/17 10:49:25;;;;;;;2.92;0.70;;;;;;;25.81;38.40;96530.59;1720200;83;21017;-86
2021/05/17 10:51:56;;;;;;;0.75;0.75;;;;;;;26.16;37.45;96528.83;1718270;83;21129;-87
2021/05/17 10:54:42;;;;;;;3.92;1.17;;;;;;;26.16;35.99;96533.43;1700660;82;21698;-87
2021/05/17 10:57:29;;;;;;;0.60;0.60;;;;;;;26.45;35.18;96534.07;1716093;83;21034;-84
2021/05/17 11:02:44;;;;;;;0.93;0.70;;;;;;;27.41;34.34;96516.84;1722751;82;21670;-86
2021/05/17 11:05:22;;;;;;;0.60;0.60;;;;;;;27.79;33.50;96512.63;1698809;83;21036;-84
2021/05/17 11:07:53;;;;;;;1.57;0.65;;;;;;;27.64;33.42;96509.93;1688739;83;21100;-86
2021/05/17 11:10:36;;;;;;;1.12;0.60;;;;;;;27.49;32.42;96508.55;1752464;80;21013;-88
2021/05/17 11:13:08;;;;;;;0.90;0.70;;;;;;;27.87;33.34;96505.37;1743733;80;21010;-86
2021/05/17 11:15:48;;;;;;;2.42;0.80;;;;;;;28.00;31.64;96498.71;1688224;83;21032;-86
2021/05/17 11:18:20;;;;;;;2.37;0.70;;;;;;;27.35;32.79;96493.94;1687641;84;21504;-85
2021/05/17 11:20:51;;;;;;;1.35;0.72;;;;;;;26.76;33.60;96490.16;1693345;83;21090;-85
2021/05/17 11:23:25;;;;;;;1.17;0.70;;;;;;;26.18;32.61;96492.86;1686269;83;21067;-86
2021/05/17 11:26:08;;;;;;;1.52;0.90;;;;;;;24.99;33.20;96488.38;1673352;83;21647;-86
2021/05/17 11:28:40;;;;;;;2.33;0.70;;;;;;;24.99;33.20;96488.38;1668765;83;21067;-84
2021/05/17 11:31:31;;;;;;;1.45;0.70;;;;;;;24.51;33.65;96487.77;1666317;84;21553;-86
2021/05/17 11:34:05;;;;;;;2.90;0.80;;;;;;;24.28;34.87;96487.62;1659656;83;21051;-86
2021/05/17 11:36:50;;;;;;;2.58;0.70;;;;;;;24.36;35.62;96485.74;1659010;86;21405;-84
2021/05/17 11:39:27;;;;;;;1.57;0.90;;;;;;;24.86;35.73;96476.70;1661126;86;21072;-85
2021/05/17 11:42:05;;;;;;;1.98;0.80;;;;;;;25.32;35.52;96473.33;1683301;85;21127;-83
2021/05/17 11:45:12;;;;;;;1.72;0.60;;;;;;;26.16;34.48;96473.17;1726130;81;21099;-85
2021/05/17 11:47:31;;;;;;;1.80;1.00;;;;;;;26.88;33.99;96456.58;1728857;82;21064;-85
2021/05/17 11:52:42;;;;;;;1.75;0.80;;;;;;;28.58;30.23;96453.36;1718910;83;21086;-86
2021/05/17 11:55:11;;;;;;;4.00;0.75;;;;;;;29.27;30.52;96445.42;1731946;82;21123;-85
2021/05/17 11:57:41;;;;;;;2.15;0.90;;;;;;;30.09;28.86;96445.14;1714103;80;21125;-87
2021/05/17 12:00:14;;;;;;;3.72;0.93;;;;;;;30.80;29.18;96442.88;1741129;82;21020;-85
2021/05/17 12:02:53;;;;;;;3.02;0.90;;;;;;;31.54;27.46;96428.11;1731864;82;21018;-84
2021/05/17 12:05:25;;;;;;;1.55;0.90;;;;;;;32.28;27.18;96433.15;1768926;80;20988;-83
2021/05/17 12:07:55;;;;;;;0.70;0.70;;;;;;;32.82;25.29;96424.98;1780474;80;21133;-85
2021/05/17 12:10:26;;;;;;;1.22;0.90;;;;;;;33.23;23.63;96422.16;1746657;80;21454;-84
2021/05/17 12:12:53;;;;;;;6.55;5.12;;;;;;;32.84;23.75;96434.66;1729207;80;21458;-82
2021/05/17 12:15:22;;;;;;;3.50;0.70;;;;;;;32.77;23.85;96425.69;1758795;80;21006;-83
2021/05/17 12:17:49;;;;;;;1.75;0.90;;;;;;;32.26;23.80;96429.25;1773163;80;21022;-77